createdAt,value
2022-09-11T00:00:49.874Z,2.37
2022-09-11T00:03:18.262Z,2.00
2022-09-11T00:05:45.399Z,2.20
2022-09-11T00:08:13.931Z,2.13
2022-09-11T00:10:42.701Z,2.03
2022-09-11T00:13:21.351Z,2.30
2022-09-11T00:15:52.208Z,2.37
2022-09-11T00:18:23.678Z,2.20
2022-09-11T00:20:52.079Z,1.90
2022-09-11T00:23:19.786Z,1.83
2022-09-11T00:25:47.483Z,2.00
2022-09-11T00:28:16.138Z,1.90
2022-09-11T00:30:44.773Z,2.00
2022-09-11T00:33:12.602Z,1.90
2022-09-11T00:35:40.384Z,1.80
2022-09-11T00:38:16.609Z,2.27
2022-09-11T00:40:46.399Z,2.00
2022-09-11T00:43:16.646Z,2.00
2022-09-11T00:45:44.908Z,2.20
2022-09-11T00:48:14.089Z,2.10
2022-09-11T00:50:43.722Z,1.87
2022-09-11T00:53:14.288Z,2.10
2022-09-11T00:55:44.110Z,2.20
2022-09-11T00:58:17.077Z,1.93
2022-09-11T01:00:44.991Z,2.00
2022-09-11T01:03:12.616Z,1.80
2022-09-11T01:05:41.291Z,1.97
2022-09-11T01:08:09.090Z,2.30
2022-09-11T01:10:56.138Z,2.20
2022-09-11T01:13:31.088Z,1.90
2022-09-11T01:16:20.483Z,2.30
2022-09-11T01:18:50.436Z,2.10
2022-09-11T01:21:35.031Z,2.10
2022-09-11T01:24:11.015Z,2.10
2022-09-11T01:27:02.118Z,1.90
2022-09-11T01:29:38.977Z,2.10
2022-09-11T01:32:09.067Z,2.27
2022-09-11T01:34:48.232Z,2.10
2022-09-11T01:37:18.789Z,2.10
2022-09-11T01:39:50.870Z,2.00
2022-09-11T01:42:20.938Z,2.07
2022-09-11T01:44:51.471Z,1.90
2022-09-11T01:47:20.610Z,1.83
2022-09-11T01:49:50.055Z,2.00
2022-09-11T01:52:19.967Z,1.73
2022-09-11T01:54:51.167Z,1.80
2022-09-11T01:57:21.431Z,1.70
2022-09-11T01:59:50.513Z,1.70
2022-09-11T02:02:21.102Z,2.10
2022-09-11T02:04:56.500Z,1.90
2022-09-11T02:07:25.804Z,1.70
2022-09-11T02:09:59.330Z,1.80
2022-09-11T02:12:28.845Z,1.70
2022-09-11T02:14:56.247Z,1.80
2022-09-11T02:17:41.532Z,1.77
2022-09-11T02:20:10.223Z,1.70
2022-09-11T02:22:37.768Z,1.80
2022-09-11T02:25:05.578Z,1.60
2022-09-11T02:27:33.730Z,1.80
2022-09-11T02:30:01.060Z,1.53
2022-09-11T02:32:28.476Z,1.70
2022-09-11T02:34:55.866Z,1.80
2022-09-11T02:37:22.917Z,1.90
2022-09-11T02:40:06.068Z,1.87
2022-09-11T02:42:57.374Z,1.67
2022-09-11T02:45:30.506Z,1.60
2022-09-11T02:48:06.679Z,1.80
2022-09-11T02:50:40.039Z,1.80
2022-09-11T02:53:29.062Z,1.50
2022-09-11T02:55:56.679Z,1.70
2022-09-11T02:58:27.102Z,1.67
2022-09-11T03:00:57.003Z,1.67
2022-09-11T03:03:24.148Z,1.40
2022-09-11T03:05:51.516Z,1.67
2022-09-11T03:08:18.720Z,1.70
2022-09-11T03:10:49.914Z,1.50
2022-09-11T03:13:17.312Z,1.90
2022-09-11T03:15:44.430Z,1.80
2022-09-11T03:18:14.494Z,1.60
2022-09-11T03:20:44.380Z,1.50
2022-09-11T03:23:11.485Z,1.70
2022-09-11T03:25:38.563Z,1.67
2022-09-11T03:28:05.650Z,1.60
2022-09-11T03:30:33.114Z,1.60
2022-09-11T03:33:04.203Z,1.80
2022-09-11T03:35:31.440Z,1.70
2022-09-11T03:37:58.622Z,1.70
2022-09-11T03:40:25.708Z,1.57
2022-09-11T03:42:53.075Z,1.70
2022-09-11T03:45:21.347Z,1.80
2022-09-11T03:47:48.587Z,1.80
2022-09-11T03:50:15.773Z,1.50
2022-09-11T03:52:43.691Z,1.50
2022-09-11T03:55:10.956Z,1.83
2022-09-11T03:57:39.097Z,1.90
2022-09-11T04:00:06.518Z,1.97
2022-09-11T04:02:33.607Z,1.70
2022-09-11T04:05:00.700Z,1.90
2022-09-11T04:07:30.946Z,1.57
2022-09-11T04:09:58.456Z,1.70
2022-09-11T04:12:25.805Z,1.70
2022-09-11T04:14:52.897Z,1.93
2022-09-11T04:17:20.001Z,1.70
2022-09-11T04:19:47.078Z,1.60
2022-09-11T04:22:14.211Z,1.60
2022-09-11T04:24:41.316Z,1.80
2022-09-11T04:27:08.832Z,1.87
2022-09-11T04:29:35.979Z,1.60
2022-09-11T04:32:03.225Z,2.00
2022-09-11T04:34:30.332Z,2.03
2022-09-11T04:36:57.450Z,1.80
2022-09-11T04:39:24.605Z,1.90
2022-09-11T04:41:51.713Z,1.87
2022-09-11T04:44:20.657Z,1.80
2022-09-11T04:46:47.989Z,1.83
2022-09-11T04:49:15.083Z,1.90
2022-09-11T04:51:42.656Z,1.60
2022-09-11T04:54:12.995Z,1.60
2022-09-11T04:56:40.221Z,1.90
2022-09-11T04:59:13.174Z,1.70
2022-09-11T05:01:40.422Z,1.80
2022-09-11T05:04:08.420Z,1.60
2022-09-11T05:06:37.941Z,1.83
2022-09-11T05:09:07.013Z,1.83
2022-09-11T05:11:34.529Z,2.03
2022-09-11T05:14:01.869Z,2.00
2022-09-11T05:16:30.563Z,1.90
2022-09-11T05:18:58.837Z,1.80
2022-09-11T05:21:26.432Z,1.60
2022-09-11T05:23:55.101Z,1.80
2022-09-11T05:26:26.292Z,1.90
2022-09-11T05:29:00.644Z,2.17
2022-09-11T05:31:29.084Z,1.97
2022-09-11T05:33:56.876Z,1.90
2022-09-11T05:36:24.450Z,2.40
2022-09-11T05:38:52.921Z,2.10
2022-09-11T05:41:20.258Z,2.10
2022-09-11T05:43:47.370Z,2.07
2022-09-11T05:46:16.265Z,2.20
2022-09-11T05:48:43.395Z,2.10
2022-09-11T05:51:12.891Z,2.27
2022-09-11T05:53:40.759Z,2.10
2022-09-11T05:56:12.478Z,2.20
2022-09-11T05:58:39.626Z,2.30
2022-09-11T06:01:11.260Z,2.40
2022-09-11T06:03:38.986Z,2.73
2022-09-11T06:06:10.267Z,2.23
2022-09-11T06:08:38.193Z,2.67
2022-09-11T06:11:09.688Z,2.40
2022-09-11T06:13:39.065Z,2.70
2022-09-11T06:16:09.557Z,2.83
2022-09-11T06:18:36.792Z,2.73
2022-09-11T06:21:08.617Z,2.90
2022-09-11T06:23:42.297Z,3.00
2022-09-11T06:26:10.688Z,3.10
2022-09-11T06:28:38.238Z,3.17
2022-09-11T06:31:05.961Z,3.50
2022-09-11T06:33:34.327Z,3.23
2022-09-11T06:36:02.220Z,3.27
2022-09-11T06:38:29.721Z,3.63
2022-09-11T06:40:56.909Z,3.43
2022-09-11T06:43:24.428Z,4.10
2022-09-11T06:45:51.941Z,3.50
2022-09-11T06:48:19.189Z,3.90
2022-09-11T06:50:46.734Z,3.80
2022-09-11T06:53:15.195Z,3.57
2022-09-11T06:55:42.548Z,4.13
2022-09-11T06:58:09.647Z,3.97
2022-09-11T07:00:37.088Z,4.40
2022-09-11T07:03:05.497Z,4.60
2022-09-11T07:05:33.695Z,4.20
2022-09-11T07:08:00.818Z,4.57
2022-09-11T07:10:28.288Z,4.90
2022-09-11T07:12:55.850Z,4.77
2022-09-11T07:15:23.009Z,5.10
2022-09-11T07:17:50.092Z,5.10
2022-09-11T07:20:17.718Z,4.90
2022-09-11T07:22:45.868Z,4.97
2022-09-11T07:25:13.679Z,5.20
2022-09-11T07:27:40.886Z,5.00
2022-09-11T07:30:08.352Z,4.67
2022-09-11T07:32:35.520Z,5.20
2022-09-11T07:35:03.183Z,5.07
2022-09-11T07:37:30.247Z,4.90
2022-09-11T07:39:57.532Z,5.10
2022-09-11T07:42:24.732Z,4.47
2022-09-11T07:44:51.823Z,4.40
2022-09-11T07:47:18.986Z,4.87
2022-09-11T07:49:46.718Z,4.73
2022-09-11T07:52:16.821Z,4.07
2022-09-11T07:54:44.144Z,4.57
2022-09-11T07:57:11.907Z,4.50
2022-09-11T07:59:39.336Z,5.13
2022-09-11T08:02:07.853Z,4.50
2022-09-11T08:04:35.027Z,4.63
2022-09-11T08:07:02.118Z,4.93
2022-09-11T08:09:29.614Z,4.47
2022-09-11T08:11:58.641Z,4.63
2022-09-11T08:14:28.564Z,4.70
2022-09-11T08:16:56.881Z,4.73
2022-09-11T08:19:24.781Z,4.33
2022-09-11T08:21:52.980Z,4.63
2022-09-11T08:24:21.377Z,4.47
2022-09-11T08:26:49.288Z,4.47
2022-09-11T08:29:16.516Z,4.50
2022-09-11T08:31:45.237Z,4.63
2022-09-11T08:34:12.443Z,4.83
2022-09-11T08:36:39.613Z,4.80
2022-09-11T08:39:06.841Z,4.77
2022-09-11T08:41:48.780Z,4.93
2022-09-11T08:44:24.207Z,4.80
2022-09-11T08:46:55.967Z,5.07
2022-09-11T08:49:25.857Z,5.30
2022-09-11T08:51:54.537Z,6.07
2022-09-11T08:54:27.455Z,5.77
2022-09-11T08:56:59.336Z,5.60
2022-09-11T08:59:38.965Z,6.50
2022-09-11T09:02:33.065Z,7.53
2022-09-11T09:05:20.109Z,6.70
2022-09-11T09:08:22.650Z,6.90
2022-09-11T09:10:53.933Z,6.90
2022-09-11T09:13:26.846Z,8.70
2022-09-11T09:15:56.769Z,8.47
2022-09-11T09:18:23.862Z,8.53
2022-09-11T09:20:56.321Z,8.40
2022-09-11T09:23:25.479Z,8.53
2022-09-11T09:25:53.185Z,8.73
2022-09-11T09:28:20.393Z,9.63
2022-09-11T09:30:57.470Z,8.97
2022-09-11T09:33:25.890Z,8.87
2022-09-11T09:35:54.324Z,8.87
2022-09-11T09:38:26.885Z,9.10
2022-09-11T09:40:57.138Z,8.70
2022-09-11T09:43:39.659Z,8.93
2022-09-11T09:46:06.793Z,9.27
2022-09-11T09:48:35.336Z,8.93
2022-09-11T09:51:04.090Z,9.63
2022-09-11T09:53:34.356Z,9.30
2022-09-11T09:56:02.735Z,9.23
2022-09-11T09:58:41.527Z,9.17
2022-09-11T10:01:28.663Z,8.90
2022-09-11T10:04:31.630Z,9.40
2022-09-11T10:07:07.727Z,9.13
2022-09-11T10:09:35.040Z,8.87
2022-09-11T10:12:02.658Z,10.00
2022-09-11T10:14:50.364Z,9.47
2022-09-11T10:17:22.851Z,9.80
2022-09-11T10:19:55.637Z,9.50
2022-09-11T10:22:24.607Z,9.63
2022-09-11T10:25:06.388Z,9.30
2022-09-11T10:27:36.137Z,9.57
2022-09-11T10:30:04.324Z,10.53
2022-09-11T10:32:32.148Z,10.80
2022-09-11T10:34:59.522Z,10.10
2022-09-11T10:37:29.860Z,10.20
2022-09-11T10:40:03.990Z,9.93
2022-09-11T10:42:31.739Z,10.33
2022-09-11T10:45:10.381Z,9.70
2022-09-11T10:47:37.521Z,8.97
2022-09-11T10:50:13.635Z,9.20
2022-09-11T10:52:52.576Z,8.57
2022-09-11T10:55:20.966Z,8.47
2022-09-11T10:57:53.589Z,9.20
2022-09-11T11:00:24.930Z,7.47
2022-09-11T11:03:00.242Z,7.83
2022-09-11T11:05:41.667Z,8.17
2022-09-11T11:08:12.169Z,8.00
2022-09-11T11:10:59.118Z,7.87
2022-09-11T11:13:52.692Z,7.40
2022-09-11T11:16:30.270Z,7.80
2022-09-11T11:19:03.490Z,7.20
2022-09-11T11:21:31.107Z,7.17
2022-09-11T11:24:01.236Z,6.97
2022-09-11T11:26:28.348Z,6.60
2022-09-11T11:29:01.455Z,6.70
2022-09-11T11:31:44.445Z,6.77
2022-09-11T11:34:17.506Z,7.40
2022-09-11T11:36:47.517Z,7.47
2022-09-11T11:39:17.476Z,7.23
2022-09-11T11:41:49.345Z,7.80
2022-09-11T11:44:19.641Z,7.47
2022-09-11T11:46:49.267Z,6.97
2022-09-11T11:49:19.719Z,7.43
2022-09-11T11:51:58.936Z,6.97
2022-09-11T11:54:27.867Z,7.43
2022-09-11T11:56:58.991Z,7.53
2022-09-11T11:59:27.118Z,7.33
2022-09-11T12:02:03.718Z,6.87
2022-09-11T12:04:54.207Z,6.73
2022-09-11T12:07:30.379Z,6.63
2022-09-11T12:09:58.884Z,6.20
2022-09-11T12:12:28.284Z,5.70
2022-09-11T12:14:56.703Z,5.57
2022-09-11T12:17:30.929Z,5.97
2022-09-11T12:20:10.518Z,5.60
2022-09-11T12:22:39.066Z,5.70
2022-09-11T12:25:27.442Z,5.70
2022-09-11T12:28:13.101Z,5.67
2022-09-11T12:30:59.252Z,5.70
2022-09-11T12:33:41.809Z,5.27
2022-09-11T12:36:10.524Z,5.60
2022-09-11T12:38:39.600Z,5.70
2022-09-11T12:41:15.086Z,5.30
2022-09-11T12:43:42.119Z,5.70
2022-09-11T12:46:14.178Z,6.10
2022-09-11T12:49:17.821Z,6.10
2022-09-11T12:51:43.065Z,6.53
2022-09-11T12:54:18.677Z,6.73
2022-09-11T12:57:03.608Z,6.40
2022-09-11T12:59:33.104Z,6.43
2022-09-11T13:02:00.596Z,6.73
2022-09-11T13:04:31.059Z,6.57
2022-09-11T13:06:59.706Z,6.50
2022-09-11T13:09:29.283Z,6.67
2022-09-11T13:11:57.529Z,6.40
2022-09-11T13:14:30.645Z,6.70
2022-09-11T13:17:01.988Z,6.53
2022-09-11T13:19:34.095Z,6.30
2022-09-11T13:22:01.202Z,6.27
2022-09-11T13:24:30.372Z,6.77
2022-09-11T13:27:00.439Z,6.10
2022-09-11T13:29:29.200Z,6.30
2022-09-11T13:31:58.408Z,5.90
2022-09-11T13:34:26.764Z,5.57
2022-09-11T13:36:56.566Z,6.17
2022-09-11T13:39:25.486Z,5.90
2022-09-11T13:41:59.211Z,6.07
2022-09-11T13:44:27.875Z,6.30
2022-09-11T13:46:55.700Z,6.57
2022-09-11T13:49:42.022Z,5.73
2022-09-11T13:52:12.668Z,5.20
2022-09-11T13:54:57.672Z,5.50
2022-09-11T13:57:28.167Z,5.53
2022-09-11T13:59:56.867Z,5.13
2022-09-11T14:02:40.787Z,5.17
2022-09-11T14:05:08.620Z,4.70
2022-09-11T14:07:42.524Z,5.17
2022-09-11T14:10:19.024Z,5.30
2022-09-11T14:12:51.736Z,4.13
2022-09-11T14:15:28.584Z,4.37
2022-09-11T14:17:56.230Z,3.93
2022-09-11T14:20:24.012Z,4.67
2022-09-11T14:22:55.107Z,4.10
2022-09-11T14:25:23.773Z,4.20
2022-09-11T14:27:51.020Z,3.80
2022-09-11T14:30:34.789Z,4.00
2022-09-11T14:33:17.468Z,3.83
2022-09-11T14:35:45.622Z,3.50
2022-09-11T14:38:13.531Z,3.93
2022-09-11T14:40:48.127Z,3.83
2022-09-11T14:43:17.514Z,4.10
2022-09-11T14:45:44.663Z,3.97
2022-09-11T14:48:14.325Z,3.70
2022-09-11T14:50:41.651Z,3.63
2022-09-11T14:53:14.790Z,3.77
2022-09-11T14:55:41.894Z,3.70
2022-09-11T14:58:09.319Z,3.70
2022-09-11T15:00:36.428Z,3.70
2022-09-11T15:03:04.085Z,3.70
2022-09-11T15:05:32.730Z,3.57
2022-09-11T15:08:00.545Z,3.93
2022-09-11T15:10:27.743Z,4.27
2022-09-11T15:12:55.814Z,4.00
2022-09-11T15:15:22.913Z,3.80
2022-09-11T15:17:50.053Z,3.97
2022-09-11T15:20:19.043Z,3.73
2022-09-11T15:22:46.121Z,3.70
2022-09-11T15:25:13.500Z,3.90
2022-09-11T15:27:40.603Z,3.70
2022-09-11T15:30:07.944Z,3.70
2022-09-11T15:32:35.023Z,3.77
2022-09-11T15:35:02.399Z,3.43
2022-09-11T15:37:29.564Z,3.73
2022-09-11T15:39:56.677Z,3.80
2022-09-11T15:42:23.859Z,3.60
2022-09-11T15:44:51.908Z,4.00
2022-09-11T15:47:19.051Z,3.40
2022-09-11T15:49:47.850Z,3.70
2022-09-11T15:52:14.985Z,3.80
2022-09-11T15:54:42.845Z,3.60
2022-09-11T15:57:09.958Z,4.00
2022-09-11T15:59:37.070Z,3.80
2022-09-11T16:02:04.751Z,3.67
2022-09-11T16:04:33.342Z,4.00
2022-09-11T16:07:00.631Z,3.87
2022-09-11T16:09:29.113Z,3.80
2022-09-11T16:11:56.409Z,4.00
2022-09-11T16:14:24.920Z,3.80
2022-09-11T16:16:52.607Z,3.50
2022-09-11T16:19:21.466Z,3.60
2022-09-11T16:21:49.411Z,4.80
2022-09-11T16:24:16.639Z,4.03
2022-09-11T16:26:44.193Z,3.60
2022-09-11T16:29:12.475Z,4.10
2022-09-11T16:31:40.160Z,3.77
2022-09-11T16:34:07.807Z,3.73
2022-09-11T16:36:42.292Z,3.80
2022-09-11T16:39:10.370Z,3.97
2022-09-11T16:41:37.504Z,3.87
2022-09-11T16:44:05.643Z,3.97
2022-09-11T16:46:33.379Z,3.83
2022-09-11T16:49:02.068Z,3.90
2022-09-11T16:51:29.880Z,4.23
2022-09-11T16:53:57.366Z,4.43
2022-09-11T16:56:25.844Z,5.13
2022-09-11T16:58:54.479Z,4.60
2022-09-11T17:01:22.729Z,4.20
2022-09-11T17:03:51.007Z,4.60
2022-09-11T17:06:20.110Z,4.33
2022-09-11T17:08:50.242Z,4.50
2022-09-11T17:11:17.866Z,4.60
2022-09-11T17:13:46.195Z,4.67
2022-09-11T17:16:16.569Z,4.50
2022-09-11T17:18:47.560Z,4.53
2022-09-11T17:21:15.242Z,4.23
2022-09-11T17:23:42.714Z,4.37
2022-09-11T17:26:10.666Z,4.23
2022-09-11T17:28:38.121Z,4.27
2022-09-11T17:31:07.684Z,4.07
2022-09-11T17:33:35.659Z,4.53
2022-09-11T17:36:03.575Z,4.70
2022-09-11T17:38:30.791Z,4.53
2022-09-11T17:40:59.851Z,4.77
2022-09-11T17:43:27.179Z,4.17
2022-09-11T17:46:00.531Z,4.40
2022-09-11T17:48:27.732Z,4.33
2022-09-11T17:51:21.189Z,4.67
2022-09-11T17:53:49.575Z,4.50
2022-09-11T17:56:18.059Z,4.00
2022-09-11T17:58:45.825Z,4.23
2022-09-11T18:01:16.802Z,4.30
2022-09-11T18:03:44.294Z,4.23
2022-09-11T18:06:37.656Z,4.13
2022-09-11T18:09:13.923Z,4.47
2022-09-11T18:11:42.683Z,3.87
2022-09-11T18:14:09.916Z,4.27
2022-09-11T18:16:37.472Z,3.93
2022-09-11T18:19:05.504Z,4.30
2022-09-11T18:21:34.653Z,4.20
2022-09-11T18:24:10.368Z,5.13
2022-09-11T18:26:40.036Z,4.57
2022-09-11T18:29:11.651Z,4.50
2022-09-11T18:31:40.324Z,4.50
2022-09-11T18:34:07.649Z,4.17
2022-09-11T18:36:34.760Z,4.40
2022-09-11T18:39:02.489Z,5.10
2022-09-11T18:41:30.568Z,3.83
2022-09-11T18:44:00.089Z,4.10
2022-09-11T18:46:27.417Z,3.90
2022-09-11T18:48:56.086Z,3.53
2022-09-11T18:51:23.256Z,4.23
2022-09-11T18:53:54.266Z,4.10
2022-09-11T18:56:22.332Z,4.07
2022-09-11T18:58:50.513Z,3.77
2022-09-11T19:01:18.733Z,3.90
2022-09-11T19:03:46.076Z,3.97
2022-09-11T19:06:18.121Z,3.70
2022-09-11T19:08:47.179Z,3.70
2022-09-11T19:11:16.477Z,4.10
2022-09-11T19:13:44.252Z,4.00
2022-09-11T19:16:11.970Z,4.60
2022-09-11T19:18:39.547Z,4.03
2022-09-11T19:21:16.924Z,3.70
2022-09-11T19:23:45.376Z,4.33
2022-09-11T19:26:14.087Z,4.33
2022-09-11T19:28:42.452Z,4.50
2022-09-11T19:31:10.826Z,6.07
2022-09-11T19:33:38.723Z,6.07
2022-09-11T19:36:10.701Z,4.53
2022-09-11T19:38:40.950Z,4.57
2022-09-11T19:41:12.849Z,5.20
2022-09-11T19:43:40.956Z,4.70
2022-09-11T19:46:18.866Z,4.73
2022-09-11T19:48:46.456Z,4.70
2022-09-11T19:51:16.106Z,4.70
2022-09-11T19:53:43.452Z,4.63
2022-09-11T19:56:11.320Z,4.90
2022-09-11T19:58:38.822Z,5.20
2022-09-11T20:01:08.905Z,5.40
2022-09-11T20:03:37.040Z,5.27
2022-09-11T20:06:04.410Z,5.30
2022-09-11T20:08:32.026Z,5.87
2022-09-11T20:11:00.364Z,5.10
2022-09-11T20:13:27.598Z,5.53
2022-09-11T20:15:54.706Z,5.57
2022-09-11T20:18:21.843Z,5.27
2022-09-11T20:20:48.993Z,5.77
2022-09-11T20:23:16.153Z,5.20
2022-09-11T20:25:44.357Z,5.30
2022-09-11T20:28:13.582Z,5.40
2022-09-11T20:30:43.238Z,5.57
2022-09-11T20:33:12.439Z,4.97
2022-09-11T20:35:39.814Z,5.17
2022-09-11T20:38:07.264Z,4.67
2022-09-11T20:40:34.357Z,5.10
2022-09-11T20:43:01.420Z,5.40
2022-09-11T20:45:28.969Z,4.83
2022-09-11T20:47:56.043Z,4.50
2022-09-11T20:50:23.123Z,5.30
2022-09-11T20:52:50.220Z,5.50
2022-09-11T20:55:17.414Z,5.13
2022-09-11T20:57:44.533Z,5.70
2022-09-11T21:00:11.964Z,4.87
2022-09-11T21:02:39.027Z,5.10
2022-09-11T21:05:06.528Z,5.33
2022-09-11T21:07:33.623Z,5.27
2022-09-11T21:10:00.765Z,5.30
2022-09-11T21:12:27.867Z,5.60
2022-09-11T21:14:54.974Z,5.77
2022-09-11T21:17:22.044Z,5.40
2022-09-11T21:19:49.163Z,5.90
2022-09-11T21:22:16.323Z,6.07
2022-09-11T21:24:44.514Z,5.90
2022-09-11T21:27:11.645Z,5.60
2022-09-11T21:29:38.751Z,5.70
2022-09-11T21:32:05.877Z,5.73
2022-09-11T21:34:33.103Z,5.57
2022-09-11T21:37:00.253Z,5.40
2022-09-11T21:39:27.435Z,5.37
2022-09-11T21:41:54.531Z,5.33
2022-09-11T21:44:21.612Z,5.60
2022-09-11T21:46:48.829Z,6.00
2022-09-11T21:49:15.934Z,6.00
2022-09-11T21:51:43.151Z,5.63
2022-09-11T21:54:10.270Z,5.87
2022-09-11T21:56:37.410Z,5.97
2022-09-11T21:59:04.560Z,6.20
2022-09-11T22:01:32.054Z,6.50
2022-09-11T22:04:00.235Z,6.40
2022-09-11T22:06:27.584Z,5.83
2022-09-11T22:08:56.100Z,5.90
2022-09-11T22:11:23.594Z,6.30
2022-09-11T22:13:52.849Z,5.83
2022-09-11T22:16:20.170Z,6.33
2022-09-11T22:18:48.852Z,6.43
2022-09-11T22:21:16.117Z,6.17
2022-09-11T22:23:43.221Z,6.03
2022-09-11T22:26:10.403Z,5.93
2022-09-11T22:28:37.992Z,6.40
2022-09-11T22:31:08.754Z,6.10
2022-09-11T22:33:37.625Z,6.53
2022-09-11T22:36:08.743Z,6.33
2022-09-11T22:38:35.904Z,6.00
2022-09-11T22:41:03.015Z,6.13
2022-09-11T22:43:30.114Z,6.27
2022-09-11T22:45:57.894Z,6.63
2022-09-11T22:48:25.058Z,6.13
2022-09-11T22:50:52.276Z,6.40
2022-09-11T22:53:19.383Z,6.13
2022-09-11T22:55:46.870Z,6.27
2022-09-11T22:58:14.039Z,6.07
2022-09-11T23:00:41.777Z,6.10
2022-09-11T23:03:08.958Z,6.60
2022-09-11T23:05:54.866Z,6.00
2022-09-11T23:08:22.220Z,5.90
2022-09-11T23:10:49.386Z,6.27
2022-09-11T23:13:16.471Z,6.00
2022-09-11T23:15:43.572Z,6.10
2022-09-11T23:18:10.755Z,5.73
2022-09-11T23:20:37.878Z,6.10
2022-09-11T23:23:04.964Z,6.67
2022-09-11T23:25:33.895Z,6.33
2022-09-11T23:28:00.990Z,6.27
2022-09-11T23:30:28.113Z,6.17
2022-09-11T23:32:55.195Z,6.13
2022-09-11T23:35:22.291Z,6.47
2022-09-11T23:37:49.422Z,6.47
2022-09-11T23:40:16.536Z,6.37
2022-09-11T23:42:43.669Z,6.10
2022-09-11T23:45:12.720Z,6.80
2022-09-11T23:47:40.231Z,6.53
2022-09-11T23:50:07.489Z,6.80
2022-09-11T23:52:36.513Z,6.57
2022-09-11T23:55:04.788Z,6.97
2022-09-11T23:57:32.018Z,6.80
2022-09-11T23:59:59.194Z,6.23
